createdAt,value
2018-06-13T00:01:09.229Z,24.90
2018-06-13T00:03:35.194Z,24.83
2018-06-13T00:06:01.176Z,24.78
2018-06-13T00:08:27.106Z,24.72
2018-06-13T00:10:53.120Z,24.76
2018-06-13T00:13:19.081Z,24.67
2018-06-13T00:15:45.069Z,24.62
2018-06-13T00:18:11.056Z,24.67
2018-06-13T00:20:37.010Z,24.65
2018-06-13T00:23:03.018Z,24.63
2018-06-13T00:25:28.932Z,24.69
2018-06-13T00:27:54.921Z,24.85
2018-06-13T00:30:20.913Z,24.85
2018-06-13T00:32:46.896Z,24.93
2018-06-13T00:35:12.905Z,24.88
2018-06-13T00:37:38.917Z,24.94
2018-06-13T00:40:04.897Z,24.93
2018-06-13T00:42:30.904Z,24.95
2018-06-13T00:44:56.897Z,24.87
2018-06-13T00:47:22.877Z,24.89
2018-06-13T00:49:48.850Z,24.79
2018-06-13T00:52:14.910Z,24.76
2018-06-13T00:54:40.863Z,24.80
2018-06-13T00:57:06.871Z,24.69
2018-06-13T00:59:32.870Z,24.73
2018-06-13T01:01:59.132Z,24.67
2018-06-13T01:04:25.156Z,24.67
2018-06-13T01:06:51.139Z,24.62
2018-06-13T01:09:17.141Z,24.62
2018-06-13T01:11:43.097Z,24.70
2018-06-13T01:14:09.090Z,24.85
2018-06-13T01:16:35.101Z,24.99
2018-06-13T01:19:01.118Z,25.03
2018-06-13T01:21:27.105Z,24.90
2018-06-13T01:23:53.072Z,24.88
2018-06-13T01:26:19.052Z,24.87
2018-06-13T01:28:45.036Z,24.91
2018-06-13T01:31:11.019Z,24.91
2018-06-13T01:33:37.017Z,24.86
2018-06-13T01:36:03.003Z,24.96
2018-06-13T01:38:28.976Z,24.79
2018-06-13T01:40:54.969Z,24.64
2018-06-13T01:43:22.003Z,24.70
2018-06-13T01:45:47.991Z,24.66
2018-06-13T01:48:13.971Z,24.67
2018-06-13T01:50:39.952Z,24.63
2018-06-13T01:53:05.917Z,24.79
2018-06-13T01:55:31.895Z,24.93
2018-06-13T01:57:57.864Z,24.97
2018-06-13T02:00:23.806Z,25.02
2018-06-13T02:02:49.783Z,24.94
2018-06-13T02:05:15.886Z,25.00
2018-06-13T02:07:41.850Z,24.93
2018-06-13T02:10:07.823Z,24.92
2018-06-13T02:12:33.799Z,24.75
2018-06-13T02:14:59.778Z,24.81
2018-06-13T02:17:25.748Z,24.79
2018-06-13T02:19:51.759Z,24.71
2018-06-13T02:22:17.789Z,24.64
2018-06-13T02:24:43.765Z,24.64
2018-06-13T02:27:09.726Z,24.61
2018-06-13T02:29:35.672Z,24.62
2018-06-13T02:32:01.677Z,24.63
2018-06-13T02:34:27.628Z,24.57
2018-06-13T02:36:53.622Z,24.67
2018-06-13T02:39:19.611Z,24.91
2018-06-13T02:41:45.603Z,24.98
2018-06-13T02:44:11.590Z,24.94
2018-06-13T02:46:37.574Z,24.84
2018-06-13T02:49:03.545Z,24.89
2018-06-13T02:51:29.527Z,24.89
2018-06-13T02:53:55.513Z,24.89
2018-06-13T02:56:21.527Z,24.91
2018-06-13T02:58:47.534Z,24.79
2018-06-13T03:01:13.529Z,24.82
2018-06-13T03:03:39.517Z,24.72
2018-06-13T03:06:05.503Z,24.66
2018-06-13T03:08:31.483Z,24.72
2018-06-13T03:10:57.474Z,24.60
2018-06-13T03:13:23.462Z,24.67
2018-06-13T03:15:49.439Z,24.63
2018-06-13T03:18:15.413Z,24.60
2018-06-13T03:20:41.382Z,24.74
2018-06-13T03:23:07.369Z,24.72
2018-06-13T03:25:34.273Z,24.84
2018-06-13T03:28:00.358Z,24.90
2018-06-13T03:30:26.360Z,24.85
2018-06-13T03:32:52.391Z,24.96
2018-06-13T03:35:18.362Z,24.93
2018-06-13T03:37:44.324Z,24.84
2018-06-13T03:40:10.304Z,24.77
2018-06-13T03:42:36.291Z,24.79
2018-06-13T03:45:02.270Z,24.73
2018-06-13T03:47:28.222Z,24.64
2018-06-13T03:49:54.185Z,24.56
2018-06-13T03:52:20.158Z,24.58
2018-06-13T03:54:46.903Z,24.48
2018-06-13T03:57:12.950Z,24.54
2018-06-13T03:59:38.924Z,24.57
2018-06-13T04:02:05.298Z,24.65
2018-06-13T04:04:31.308Z,24.60
2018-06-13T04:06:57.285Z,24.76
2018-06-13T04:09:23.296Z,25.01
2018-06-13T04:11:49.389Z,24.84
2018-06-13T04:14:15.392Z,24.79
2018-06-13T04:16:41.390Z,24.83
2018-06-13T04:19:07.353Z,24.92
2018-06-13T04:21:33.322Z,24.83
2018-06-13T04:23:59.292Z,24.66
2018-06-13T04:26:25.292Z,24.60
2018-06-13T04:28:51.297Z,24.58
2018-06-13T04:31:17.277Z,24.53
2018-06-13T04:33:43.235Z,24.52
2018-06-13T04:36:09.223Z,24.49
2018-06-13T04:38:35.221Z,24.46
2018-06-13T04:41:01.222Z,24.53
2018-06-13T04:43:27.223Z,24.49
2018-06-13T04:45:53.211Z,24.56
2018-06-13T04:48:19.182Z,24.57
2018-06-13T04:50:45.165Z,24.74
2018-06-13T04:53:11.149Z,25.03
2018-06-13T04:55:37.129Z,24.83
2018-06-13T04:58:03.091Z,24.79
2018-06-13T05:00:29.065Z,24.78
2018-06-13T05:02:55.038Z,24.71
2018-06-13T05:05:21.008Z,24.62
2018-06-13T05:07:47.032Z,24.54
2018-06-13T05:10:13.033Z,24.68
2018-06-13T05:12:38.992Z,24.50
2018-06-13T05:15:04.980Z,24.47
2018-06-13T05:17:30.958Z,24.45
2018-06-13T05:19:57.765Z,24.51
2018-06-13T05:22:24.052Z,24.49
2018-06-13T05:24:50.009Z,24.49
2018-06-13T05:27:15.995Z,24.48
2018-06-13T05:29:42.011Z,24.63
2018-06-13T05:32:08.006Z,24.42
2018-06-13T05:34:33.981Z,24.60
2018-06-13T05:36:59.950Z,24.60
2018-06-13T05:39:26.020Z,24.70
2018-06-13T05:41:52.022Z,24.54
2018-06-13T05:44:18.010Z,24.45
2018-06-13T05:46:43.977Z,24.54
2018-06-13T05:49:09.967Z,24.40
2018-06-13T05:51:35.963Z,24.42
2018-06-13T05:54:01.913Z,24.44
2018-06-13T05:56:27.869Z,24.43
2018-06-13T05:58:53.819Z,24.46
2018-06-13T06:01:19.927Z,24.45
2018-06-13T06:03:45.857Z,24.45
2018-06-13T06:06:11.864Z,24.38
2018-06-13T06:08:37.873Z,24.44
2018-06-13T06:11:03.900Z,24.86
2018-06-13T06:13:29.907Z,24.86
2018-06-13T06:15:55.939Z,24.73
2018-06-13T06:18:22.008Z,24.64
2018-06-13T06:20:49.032Z,24.66
2018-06-13T06:23:15.022Z,24.65
2018-06-13T06:25:41.008Z,24.62
2018-06-13T06:28:07.038Z,24.75
2018-06-13T06:30:33.027Z,24.62
2018-06-13T06:32:59.109Z,24.75
2018-06-13T06:35:25.070Z,24.83
2018-06-13T06:37:51.065Z,24.82
2018-06-13T06:40:17.024Z,24.83
2018-06-13T06:42:43.003Z,24.88
2018-06-13T06:45:09.002Z,24.98
2018-06-13T06:47:34.995Z,24.81
2018-06-13T06:50:00.983Z,24.72
2018-06-13T06:52:26.953Z,24.81
2018-06-13T06:54:52.932Z,24.81
2018-06-13T06:57:18.959Z,24.88
2018-06-13T06:59:44.965Z,24.95
2018-06-13T07:02:11.128Z,25.06
2018-06-13T07:04:37.124Z,24.92
2018-06-13T07:07:03.147Z,24.88
2018-06-13T07:09:29.105Z,24.81
2018-06-13T07:11:55.100Z,24.85
2018-06-13T07:14:21.093Z,24.81
2018-06-13T07:16:47.101Z,24.67
2018-06-13T07:19:13.112Z,24.73
2018-06-13T07:21:39.114Z,24.83
2018-06-13T07:24:05.094Z,24.83
2018-06-13T07:26:31.053Z,24.79
2018-06-13T07:28:57.129Z,24.86
2018-06-13T07:31:23.112Z,24.95
2018-06-13T07:33:49.120Z,24.95
2018-06-13T07:36:15.135Z,24.96
2018-06-13T07:38:41.109Z,24.99
2018-06-13T07:41:07.110Z,24.93
2018-06-13T07:43:33.082Z,25.15
2018-06-13T07:45:59.151Z,25.16
2018-06-13T07:48:25.178Z,25.15
2018-06-13T07:50:51.197Z,25.12
2018-06-13T07:53:17.173Z,25.05
2018-06-13T07:55:43.179Z,25.20
2018-06-13T07:58:09.179Z,25.06
2018-06-13T08:00:35.208Z,25.05
2018-06-13T08:03:01.194Z,25.12
2018-06-13T08:05:27.166Z,25.06
2018-06-13T08:07:53.188Z,25.07
2018-06-13T08:10:19.159Z,25.07
2018-06-13T08:12:45.115Z,25.02
2018-06-13T08:15:11.167Z,25.01
2018-06-13T08:17:37.150Z,25.03
2018-06-13T08:20:03.112Z,25.12
2018-06-13T08:22:29.074Z,25.06
2018-06-13T08:24:55.064Z,25.10
2018-06-13T08:27:21.124Z,25.10
2018-06-13T08:29:47.095Z,25.14
2018-06-13T08:32:17.063Z,25.14
2018-06-13T08:34:43.025Z,25.12
2018-06-13T08:37:08.986Z,25.10
2018-06-13T08:39:34.960Z,25.15
2018-06-13T08:42:00.935Z,24.97
2018-06-13T08:44:26.901Z,25.09
2018-06-13T08:46:52.907Z,25.05
2018-06-13T08:49:18.863Z,25.05
2018-06-13T08:51:44.935Z,25.00
2018-06-13T08:54:10.952Z,24.98
2018-06-13T08:56:36.875Z,25.03
2018-06-13T08:59:02.840Z,25.03
2018-06-13T09:01:28.809Z,25.11
2018-06-13T09:03:54.791Z,25.01
2018-06-13T09:06:20.770Z,24.93
2018-06-13T09:08:46.759Z,25.00
2018-06-13T09:11:12.729Z,25.01
2018-06-13T09:13:38.727Z,24.80
2018-06-13T09:16:04.720Z,24.91
2018-06-13T09:18:30.870Z,24.96
2018-06-13T09:20:56.816Z,25.00
2018-06-13T09:23:22.861Z,24.90
2018-06-13T09:25:48.859Z,24.83
2018-06-13T09:28:15.001Z,24.79
2018-06-13T09:30:41.097Z,24.78
2018-06-13T09:33:07.080Z,24.72
2018-06-13T09:35:33.113Z,24.67
2018-06-13T09:37:59.145Z,24.74
2018-06-13T09:40:25.107Z,24.67
2018-06-13T09:42:51.103Z,24.62
2018-06-13T09:45:17.186Z,24.59
2018-06-13T09:47:43.161Z,24.60
2018-06-13T09:50:09.195Z,24.70
2018-06-13T09:52:35.100Z,24.72
2018-06-13T09:55:01.058Z,24.69
2018-06-13T09:57:27.016Z,24.70
2018-06-13T09:59:53.045Z,24.79
2018-06-13T10:02:19.026Z,24.70
2018-06-13T10:04:45.042Z,24.67
2018-06-13T10:07:10.965Z,24.76
2018-06-13T10:09:36.926Z,24.58
2018-06-13T10:12:02.908Z,24.64
2018-06-13T10:14:28.868Z,24.67
2018-06-13T10:16:54.817Z,24.59
2018-06-13T10:19:20.791Z,24.53
2018-06-13T10:21:46.783Z,24.54
2018-06-13T10:24:12.734Z,24.58
2018-06-13T10:26:38.789Z,24.54
2018-06-13T10:29:04.729Z,24.54
2018-06-13T10:31:30.670Z,24.52
2018-06-13T10:33:56.653Z,24.52
2018-06-13T10:36:22.603Z,24.44
2018-06-13T10:38:48.578Z,24.58
2018-06-13T10:41:14.527Z,24.65
2018-06-13T10:43:40.506Z,24.67
2018-06-13T10:46:06.495Z,24.73
2018-06-13T10:48:32.511Z,24.63
2018-06-13T10:50:58.480Z,24.63
2018-06-13T10:53:24.447Z,24.63
2018-06-13T10:55:50.409Z,24.53
2018-06-13T10:58:16.381Z,24.53
2018-06-13T11:00:42.373Z,24.51
2018-06-13T11:03:08.330Z,24.50
2018-06-13T11:05:34.294Z,24.46
2018-06-13T11:08:00.311Z,24.36
2018-06-13T11:10:26.290Z,24.41
2018-06-13T11:12:52.268Z,24.36
2018-06-13T11:15:18.236Z,24.34
2018-06-13T11:17:44.197Z,24.38
2018-06-13T11:20:10.155Z,24.48
2018-06-13T11:22:36.132Z,24.51
2018-06-13T11:25:02.099Z,24.49
2018-06-13T11:27:28.064Z,24.55
2018-06-13T11:29:54.139Z,24.51
2018-06-13T11:32:20.106Z,24.57
2018-06-13T11:34:46.059Z,24.55
2018-06-13T11:37:12.034Z,24.60
2018-06-13T11:39:37.995Z,24.52
2018-06-13T11:42:03.948Z,24.48
2018-06-13T11:44:29.965Z,24.46
2018-06-13T11:46:55.934Z,24.45
2018-06-13T11:49:21.961Z,24.40
2018-06-13T11:51:47.912Z,24.39
2018-06-13T11:54:13.876Z,24.34
2018-06-13T11:56:39.881Z,24.38
2018-06-13T11:59:05.846Z,24.35
2018-06-13T12:01:31.834Z,24.27
2018-06-13T12:03:57.828Z,24.41
2018-06-13T12:06:23.816Z,24.48
2018-06-13T12:08:49.783Z,24.60
2018-06-13T12:11:15.760Z,24.73
2018-06-13T12:13:41.735Z,24.74
2018-06-13T12:16:07.716Z,24.59
2018-06-13T12:18:33.702Z,24.63
2018-06-13T12:20:59.679Z,24.57
2018-06-13T12:23:25.736Z,24.63
2018-06-13T12:25:51.721Z,24.49
2018-06-13T12:28:17.690Z,24.50
2018-06-13T12:30:43.641Z,24.44
2018-06-13T12:33:09.610Z,24.37
2018-06-13T12:35:35.589Z,24.35
2018-06-13T12:38:01.624Z,24.30
2018-06-13T12:40:27.582Z,24.24
2018-06-13T12:42:53.550Z,24.23
2018-06-13T12:45:19.526Z,24.22
2018-06-13T12:47:45.497Z,24.25
2018-06-13T12:50:11.484Z,24.37
2018-06-13T12:52:37.453Z,24.45
2018-06-13T12:55:03.416Z,24.62
2018-06-13T12:57:29.389Z,24.53
2018-06-13T12:59:55.345Z,24.53
2018-06-13T13:02:21.310Z,24.50
2018-06-13T13:04:47.262Z,24.58
2018-06-13T13:07:13.230Z,24.44
2018-06-13T13:09:39.189Z,24.41
2018-06-13T13:12:05.159Z,24.39
2018-06-13T13:14:31.131Z,24.42
2018-06-13T13:16:57.082Z,24.41
2018-06-13T13:19:23.115Z,24.42
2018-06-13T13:21:49.093Z,24.26
2018-06-13T13:24:15.068Z,24.28
2018-06-13T13:26:41.031Z,24.26
2018-06-13T13:29:07.093Z,24.42
2018-06-13T13:31:33.076Z,24.31
2018-06-13T13:33:59.028Z,24.38
2018-06-13T13:36:26.038Z,24.46
2018-06-13T13:38:51.993Z,24.51
2018-06-13T13:41:17.960Z,24.46
2018-06-13T13:43:43.934Z,24.72
2018-06-13T13:46:09.882Z,24.71
2018-06-13T13:48:35.867Z,24.60
2018-06-13T13:51:01.859Z,24.45
2018-06-13T13:53:27.858Z,24.48
2018-06-13T13:55:53.804Z,24.42
2018-06-13T13:58:19.892Z,24.54
2018-06-13T14:00:45.965Z,24.46
2018-06-13T14:03:11.930Z,24.42
2018-06-13T14:05:37.945Z,24.35
2018-06-13T14:08:03.920Z,24.41
2018-06-13T14:10:29.895Z,24.38
2018-06-13T14:12:55.848Z,24.38
2018-06-13T14:15:21.799Z,24.41
2018-06-13T14:17:47.762Z,24.41
2018-06-13T14:20:13.823Z,24.43
2018-06-13T14:22:39.839Z,24.54
2018-06-13T14:25:05.771Z,24.72
2018-06-13T14:27:31.752Z,24.72
2018-06-13T14:29:57.736Z,24.64
2018-06-13T14:32:23.713Z,24.72
2018-06-13T14:34:49.703Z,24.53
2018-06-13T14:37:15.690Z,24.55
2018-06-13T14:39:41.652Z,24.43
2018-06-13T14:42:07.601Z,24.44
2018-06-13T14:44:33.580Z,24.51
2018-06-13T14:46:59.544Z,24.31
2018-06-13T14:49:25.549Z,24.33
2018-06-13T14:51:51.526Z,24.37
2018-06-13T14:54:17.514Z,24.39
2018-06-13T14:56:43.512Z,24.29
2018-06-13T14:59:09.459Z,24.27
2018-06-13T15:01:35.444Z,24.31
2018-06-13T15:04:01.410Z,24.27
2018-06-13T15:06:27.368Z,24.33
2018-06-13T15:08:53.368Z,24.41
2018-06-13T15:11:19.339Z,24.52
2018-06-13T15:13:45.348Z,24.54
2018-06-13T15:16:11.325Z,24.42
2018-06-13T15:18:37.405Z,24.32
2018-06-13T15:21:03.363Z,24.30
2018-06-13T15:23:29.367Z,24.32
2018-06-13T15:25:55.336Z,24.33
2018-06-13T15:28:21.415Z,24.31
2018-06-13T15:30:47.391Z,24.29
2018-06-13T15:33:13.365Z,24.31
2018-06-13T15:35:39.373Z,24.42
2018-06-13T15:38:05.332Z,24.34
2018-06-13T15:40:31.305Z,24.28
2018-06-13T15:42:57.284Z,24.29
2018-06-13T15:45:23.247Z,24.32
2018-06-13T15:47:49.217Z,24.29
2018-06-13T15:50:15.253Z,24.34
2018-06-13T15:52:41.239Z,24.43
2018-06-13T15:55:07.218Z,24.52
2018-06-13T15:57:33.180Z,24.48
2018-06-13T15:59:59.166Z,24.47
2018-06-13T16:02:25.220Z,24.33
2018-06-13T16:04:51.232Z,24.37
2018-06-13T16:07:17.203Z,24.26
2018-06-13T16:09:43.213Z,24.29
2018-06-13T16:12:09.181Z,24.28
2018-06-13T16:14:35.184Z,24.29
2018-06-13T16:17:01.162Z,24.27
2018-06-13T16:19:27.115Z,24.27
2018-06-13T16:21:53.084Z,24.32
2018-06-13T16:24:19.048Z,24.34
2018-06-13T16:26:45.010Z,24.32
2018-06-13T16:29:10.977Z,24.29
2018-06-13T16:31:36.929Z,24.37
2018-06-13T16:34:02.968Z,24.24
2018-06-13T16:36:28.928Z,24.27
2018-06-13T16:38:54.882Z,24.37
2018-06-13T16:41:20.877Z,24.41
2018-06-13T16:43:46.855Z,24.46
2018-06-13T16:46:12.897Z,24.35
2018-06-13T16:48:38.848Z,24.36
2018-06-13T16:51:04.870Z,24.41
2018-06-13T16:53:30.870Z,24.53
2018-06-13T16:55:56.847Z,24.48
2018-06-13T16:58:22.930Z,24.49
2018-06-13T17:00:48.880Z,24.40
2018-06-13T17:03:14.923Z,24.48
2018-06-13T17:05:40.945Z,24.34
2018-06-13T17:08:06.899Z,24.32
2018-06-13T17:10:32.828Z,24.33
2018-06-13T17:12:58.823Z,24.31
2018-06-13T17:15:24.843Z,24.34
2018-06-13T17:17:50.802Z,24.38
2018-06-13T17:20:16.761Z,24.34
2018-06-13T17:22:42.740Z,24.60
2018-06-13T17:25:08.722Z,24.60
2018-06-13T17:27:34.741Z,24.35
2018-06-13T17:30:00.655Z,24.33
2018-06-13T17:32:26.612Z,24.26
2018-06-13T17:34:52.700Z,24.29
2018-06-13T17:37:18.713Z,24.28
2018-06-13T17:39:44.755Z,24.28
2018-06-13T17:42:10.705Z,24.26
2018-06-13T17:44:36.696Z,24.35
2018-06-13T17:47:02.676Z,24.34
2018-06-13T17:49:28.650Z,24.32
2018-06-13T17:51:54.644Z,24.29
2018-06-13T17:54:20.701Z,24.28
2018-06-13T17:56:46.674Z,24.32
2018-06-13T17:59:12.652Z,24.31
2018-06-13T18:01:38.697Z,24.29
2018-06-13T18:04:04.761Z,24.31
2018-06-13T18:06:30.751Z,24.35
2018-06-13T18:08:56.747Z,24.36
2018-06-13T18:11:22.710Z,24.33
2018-06-13T18:13:48.704Z,24.30
2018-06-13T18:16:14.670Z,24.26
2018-06-13T18:18:40.676Z,24.30
2018-06-13T18:21:06.668Z,24.32
2018-06-13T18:23:32.647Z,24.27
2018-06-13T18:25:58.620Z,24.29
2018-06-13T18:28:24.698Z,24.27
2018-06-13T18:30:50.670Z,24.33
2018-06-13T18:33:18.458Z,24.30
2018-06-13T18:35:44.464Z,24.35
2018-06-13T18:38:10.445Z,24.34
2018-06-13T18:40:36.417Z,24.30
2018-06-13T18:43:02.411Z,24.29
2018-06-13T18:45:28.375Z,24.20
2018-06-13T18:47:54.341Z,24.25
2018-06-13T18:50:20.337Z,24.32
2018-06-13T18:52:46.386Z,24.25
2018-06-13T18:55:12.353Z,24.21
2018-06-13T18:57:38.351Z,24.22
2018-06-13T19:00:04.305Z,24.24
2018-06-13T19:02:30.380Z,24.24
2018-06-13T19:04:56.354Z,24.26
2018-06-13T19:07:22.349Z,24.34
2018-06-13T19:09:48.327Z,24.30
2018-06-13T19:12:14.292Z,24.26
2018-06-13T19:14:40.779Z,24.35
2018-06-13T19:17:06.737Z,24.29
2018-06-13T19:19:32.724Z,24.35
2018-06-13T19:21:58.776Z,24.35
2018-06-13T19:24:24.773Z,24.30
2018-06-13T19:26:50.792Z,24.30
2018-06-13T19:29:16.769Z,24.27
2018-06-13T19:31:42.749Z,24.26
2018-06-13T19:34:08.721Z,24.29
2018-06-13T19:36:34.709Z,24.31
2018-06-13T19:39:00.677Z,24.33
2018-06-13T19:41:26.671Z,24.33
2018-06-13T19:43:52.664Z,24.33
2018-06-13T19:46:18.673Z,24.39
2018-06-13T19:48:44.648Z,24.38
2018-06-13T19:51:11.644Z,24.35
2018-06-13T19:53:37.615Z,24.48
2018-06-13T19:56:03.586Z,24.43
2018-06-13T19:58:29.553Z,24.46
2018-06-13T20:00:55.560Z,24.41
2018-06-13T20:03:21.552Z,24.45
2018-06-13T20:05:47.530Z,24.45
2018-06-13T20:08:13.532Z,24.45
2018-06-13T20:10:39.574Z,24.37
2018-06-13T20:13:05.597Z,24.36
2018-06-13T20:15:31.554Z,24.33
2018-06-13T20:17:57.527Z,24.39
2018-06-13T20:20:23.505Z,24.35
2018-06-13T20:22:49.469Z,24.40
2018-06-13T20:25:15.546Z,24.38
2018-06-13T20:27:41.462Z,24.37
2018-06-13T20:30:07.450Z,24.36
2018-06-13T20:32:33.424Z,24.36
2018-06-13T20:34:59.381Z,24.47
2018-06-13T20:37:25.353Z,24.65
2018-06-13T20:39:51.342Z,24.53
2018-06-13T20:42:17.391Z,24.30
2018-06-13T20:44:43.397Z,24.30
2018-06-13T20:47:09.384Z,24.31
2018-06-13T20:49:35.363Z,24.28
2018-06-13T20:52:01.355Z,24.26
2018-06-13T20:54:27.291Z,24.27
2018-06-13T20:56:53.266Z,24.37
2018-06-13T20:59:19.250Z,24.65
2018-06-13T21:01:45.208Z,24.83
2018-06-13T21:04:11.155Z,24.73
2018-06-13T21:06:37.182Z,24.80
2018-06-13T21:09:03.153Z,24.94
2018-06-13T21:11:29.161Z,24.92
2018-06-13T21:13:55.143Z,24.82
2018-06-13T21:16:21.136Z,24.55
2018-06-13T21:18:47.136Z,24.48
2018-06-13T21:21:13.089Z,24.49
2018-06-13T21:23:39.040Z,24.65
2018-06-13T21:26:05.035Z,24.70
2018-06-13T21:28:31.010Z,24.62
2018-06-13T21:30:56.986Z,24.52
2018-06-13T21:33:23.024Z,24.57
2018-06-13T21:35:48.999Z,24.45
2018-06-13T21:38:15.134Z,24.53
2018-06-13T21:40:41.091Z,24.62
2018-06-13T21:43:07.049Z,24.65
2018-06-13T21:45:33.029Z,24.54
2018-06-13T21:47:58.981Z,24.57
2018-06-13T21:50:24.974Z,24.69
2018-06-13T21:52:50.917Z,24.70
2018-06-13T21:55:16.930Z,24.66
2018-06-13T21:57:42.894Z,24.71
2018-06-13T22:00:08.884Z,24.55
2018-06-13T22:02:34.856Z,24.42
2018-06-13T22:05:00.846Z,24.54
2018-06-13T22:07:26.812Z,24.59
2018-06-13T22:09:52.786Z,24.49
2018-06-13T22:12:18.741Z,24.46
2018-06-13T22:14:44.732Z,24.34
2018-06-13T22:17:10.996Z,24.16
2018-06-13T22:19:36.985Z,24.18
2018-06-13T22:22:02.958Z,24.10
2018-06-13T22:24:28.961Z,24.15
2018-06-13T22:26:54.946Z,24.25
2018-06-13T22:29:20.946Z,24.41
2018-06-13T22:31:46.912Z,24.67
2018-06-13T22:34:12.926Z,24.50
2018-06-13T22:36:38.909Z,24.47
2018-06-13T22:39:04.873Z,24.59
2018-06-13T22:41:30.850Z,24.35
2018-06-13T22:43:56.816Z,24.25
2018-06-13T22:46:22.807Z,24.21
2018-06-13T22:48:48.807Z,24.18
2018-06-13T22:51:14.769Z,24.14
2018-06-13T22:53:40.730Z,24.09
2018-06-13T22:56:06.709Z,24.09
2018-06-13T22:58:32.702Z,24.07
2018-06-13T23:00:58.687Z,24.13
2018-06-13T23:03:24.767Z,24.11
2018-06-13T23:05:50.726Z,24.15
2018-06-13T23:08:16.686Z,24.15
2018-06-13T23:10:42.694Z,24.27
2018-06-13T23:13:08.669Z,24.47
2018-06-13T23:15:34.662Z,24.37
2018-06-13T23:18:00.621Z,24.46
2018-06-13T23:20:26.684Z,24.39
2018-06-13T23:22:52.646Z,24.31
2018-06-13T23:25:18.620Z,24.28
2018-06-13T23:27:44.573Z,24.16
2018-06-13T23:30:10.549Z,24.13
2018-06-13T23:32:36.496Z,24.11
2018-06-13T23:35:02.478Z,24.08
2018-06-13T23:37:28.441Z,24.12
2018-06-13T23:39:54.437Z,24.14
2018-06-13T23:42:20.394Z,24.10
2018-06-13T23:44:46.361Z,24.12
2018-06-13T23:47:12.378Z,24.11
2018-06-13T23:49:38.347Z,24.09
2018-06-13T23:52:04.311Z,24.07
2018-06-13T23:54:30.275Z,24.19
2018-06-13T23:56:56.263Z,24.46
2018-06-13T23:59:22.217Z,24.41
